KDAN/DAN METAR and TAF weather

Enter ICAO airport designator
Station Type Date Time Source
KDAN METAR 2020/09/18 16:23 UTC NOAA

KDAN 181623Z AUTO 02012KT 10SM SCT022 OVC030 22/17 A2997 RMK AO2 T02220167


Station Type Date Time Source
KDAN Decoded METAR 2020/09/18 16:23 UTC NOAA

DANVILLE REGIONAL AIRPORT, VA, United States (KDAN) 36-34N 079-20W 175M
Sep 18, 2020 - 12:23 PM EDT / 2020.09.18 1623 UTC
Wind: from the NNE (020 degrees) at 14 MPH (12 KT):0
Visibility: 10 mile(s):0
Sky conditions: overcast
Temperature: 72.0 F (22.2 C)
Dew Point: 62.1 F (16.7 C)
Relative Humidity: 71%
Pressure (altimeter): 29.97 in. Hg (1014 hPa)
ob: KDAN 181623Z AUTO 02012KT 10SM SCT022 OVC030 22/17 A2997 RMK AO2 T02220167
cycle: 16

Station Type Date Time Source
KDAN TAF 2020/09/18 12:57 UTC NOAA

TAF
AMD KDAN 181155Z 1812/1912 03013KT P6SM SCT007 OVC012
TEMPO 1812/1814 3SM BR BKN007
FM181600 03010KT P6SM BKN020 OVC040
FM182200 02010KT P6SM SCT040 BKN250

Example: see airport list